createdAt,value
2022-09-24T00:04:29.375Z,4.00
2022-09-24T00:09:36.275Z,6.03
2022-09-24T00:14:43.081Z,4.30
2022-09-24T00:19:50.402Z,4.70
2022-09-24T00:25:14.685Z,3.97
2022-09-24T00:30:22.408Z,6.05
2022-09-24T00:35:29.215Z,3.97
2022-09-24T00:40:40.057Z,5.70
2022-09-24T00:45:47.590Z,4.17
2022-09-24T00:50:57.875Z,4.10
2022-09-24T00:56:06.914Z,3.57
2022-09-24T01:01:15.506Z,4.03
2022-09-24T01:06:23.051Z,4.30
2022-09-24T01:11:50.766Z,3.40
2022-09-24T01:17:35.618Z,3.20
2022-09-24T01:23:09.950Z,5.40
2022-09-24T01:28:23.465Z,3.97
2022-09-24T01:33:34.386Z,4.00
2022-09-24T01:38:45.909Z,4.60
2022-09-24T01:43:53.868Z,6.43
2022-09-24T01:49:01.160Z,4.47
2022-09-24T01:54:27.745Z,3.53
2022-09-24T02:00:05.476Z,4.37
2022-09-24T02:05:34.638Z,4.00
2022-09-24T02:10:47.232Z,5.27
2022-09-24T02:15:58.303Z,3.57
2022-09-24T02:21:09.523Z,3.63
2022-09-24T02:26:17.893Z,3.57
2022-09-24T02:31:44.319Z,3.57
2022-09-24T02:37:01.421Z,4.23
2022-09-24T02:42:12.340Z,3.70
2022-09-24T02:47:19.968Z,4.80
2022-09-24T02:52:26.652Z,5.10
2022-09-24T02:57:35.482Z,4.80
2022-09-24T03:02:42.247Z,4.93
2022-09-24T03:07:48.940Z,5.63
2022-09-24T03:12:55.653Z,4.07
2022-09-24T03:18:03.874Z,4.23
2022-09-24T03:23:11.265Z,3.87
2022-09-24T03:28:18.777Z,3.67
2022-09-24T03:33:25.476Z,3.93
2022-09-24T03:38:33.044Z,3.67
2022-09-24T03:43:40.324Z,3.87
2022-09-24T03:48:47.778Z,4.00
2022-09-24T03:53:54.448Z,4.57
2022-09-24T03:59:01.110Z,5.73
2022-09-24T04:04:07.817Z,4.37
2022-09-24T04:09:15.727Z,3.57
2022-09-24T04:14:23.716Z,4.30
2022-09-24T04:19:32.090Z,4.03
2022-09-24T04:24:38.728Z,3.80
2022-09-24T04:29:45.407Z,3.50
2022-09-24T04:34:52.075Z,5.30
2022-09-24T04:39:58.768Z,3.57
2022-09-24T04:45:05.971Z,4.13
2022-09-24T04:50:14.243Z,4.63
2022-09-24T04:55:23.657Z,40.53
2022-09-24T05:00:31.948Z,6.23
2022-09-24T05:05:39.138Z,4.13
2022-09-24T05:10:45.823Z,9.13
2022-09-24T05:15:52.555Z,7.77
2022-09-24T05:20:59.371Z,4.27
2022-09-24T05:26:23.913Z,4.80
2022-09-24T05:36:36.425Z,4.65
2022-09-24T05:41:44.635Z,4.20
2022-09-24T05:46:54.022Z,5.23
2022-09-24T05:52:01.152Z,3.90
2022-09-24T05:57:07.798Z,3.93
2022-09-24T06:02:16.030Z,4.20
2022-09-24T06:07:23.695Z,4.77
2022-09-24T06:12:30.479Z,4.33
2022-09-24T06:17:37.180Z,5.67
2022-09-24T06:22:44.949Z,3.57
2022-09-24T06:28:01.393Z,3.93
2022-09-24T06:33:15.147Z,3.77
2022-09-24T06:38:22.833Z,5.42
2022-09-24T06:43:32.455Z,1.10
2022-09-24T06:48:40.638Z,2.80
2022-09-24T06:53:47.280Z,1.33
2022-09-24T06:58:55.028Z,2.23
2022-09-24T07:04:03.543Z,0.97
2022-09-24T07:09:10.829Z,2.03
2022-09-24T07:14:18.552Z,1.00
2022-09-24T07:19:25.232Z,2.20
2022-09-24T07:24:32.960Z,3.80
2022-09-24T07:29:40.153Z,2.67
2022-09-24T07:34:48.728Z,1.73
2022-09-24T07:39:56.489Z,5.33
2022-09-24T07:45:03.269Z,1.93
2022-09-24T07:50:13.474Z,1.77
2022-09-24T07:55:21.714Z,1.20
2022-09-24T08:00:28.425Z,2.00
2022-09-24T08:05:35.945Z,2.90
2022-09-24T08:10:43.449Z,2.43
2022-09-24T08:15:52.241Z,2.03
2022-09-24T08:21:06.507Z,3.53
2022-09-24T08:26:16.109Z,1.62
2022-09-24T08:31:22.858Z,2.73
2022-09-24T08:36:30.379Z,2.17
2022-09-24T08:41:55.193Z,0.87
2022-09-24T08:47:24.598Z,0.87
2022-09-24T08:52:47.565Z,1.10
2022-09-24T08:58:32.394Z,2.73
2022-09-24T09:03:49.615Z,0.47
2022-09-24T09:09:07.538Z,0.43
2022-09-24T09:14:21.577Z,3.17
2022-09-24T09:25:04.714Z,5.97
2022-09-24T09:30:15.114Z,4.90
2022-09-24T09:35:31.902Z,5.73
2022-09-24T09:46:46.285Z,5.93
2022-09-24T09:51:58.067Z,4.70
2022-09-24T09:57:07.163Z,1999.90
2022-09-24T10:02:18.414Z,1999.90
2022-09-24T10:07:26.517Z,3.20
2022-09-24T10:12:33.348Z,866.60
2022-09-24T10:17:42.064Z,23.47
2022-09-24T10:22:55.142Z,100.77
2022-09-24T10:28:28.526Z,1549.58
2022-09-24T10:33:44.900Z,1999.90
2022-09-24T10:39:04.127Z,1999.90
2022-09-24T10:44:15.592Z,0.40
2022-09-24T10:50:11.497Z,0.77
2022-09-24T10:55:45.820Z,0.57
2022-09-24T11:01:15.072Z,0.80
2022-09-24T11:06:38.339Z,1999.90
2022-09-24T11:12:09.090Z,1999.90
2022-09-24T11:17:41.381Z,1999.90
2022-09-24T11:23:27.683Z,1999.90
2022-09-24T11:28:59.675Z,194.53
2022-09-24T11:34:28.018Z,1999.90
2022-09-24T11:39:49.464Z,1999.90
2022-09-24T11:45:28.641Z,1999.90
2022-09-24T11:50:58.239Z,1999.90
2022-09-24T11:56:20.084Z,1999.90
2022-09-24T12:01:30.693Z,1999.90
2022-09-24T12:06:50.069Z,1999.90
2022-09-24T12:12:02.713Z,1999.90
2022-09-24T12:17:13.978Z,0.43
2022-09-24T12:22:23.649Z,0.77
2022-09-24T12:27:37.691Z,0.83
2022-09-24T12:32:56.247Z,0.50
2022-09-24T12:38:16.250Z,6.10
2022-09-24T12:43:49.128Z,92.70
2022-09-24T12:48:58.735Z,0.60
2022-09-24T12:54:29.473Z,1.07
2022-09-24T12:59:39.094Z,6.70
2022-09-24T13:05:08.863Z,0.97
2022-09-24T13:10:25.857Z,1.63
2022-09-24T13:15:43.079Z,21.00
2022-09-24T13:21:03.529Z,3.83
2022-09-24T13:26:14.447Z,4.57
2022-09-24T13:31:31.699Z,3.47
2022-09-24T13:37:00.282Z,3.00
2022-09-24T13:42:23.854Z,2.57
2022-09-24T13:48:05.451Z,2.53
2022-09-24T13:53:41.343Z,3.60
2022-09-24T13:58:51.835Z,2.47
2022-09-24T14:04:03.180Z,2.17
2022-09-24T14:09:33.464Z,2.30
2022-09-24T14:14:48.261Z,3.13
2022-09-24T14:19:59.479Z,4.37
2022-09-24T14:25:13.957Z,2.70
2022-09-24T14:30:29.044Z,4.23
2022-09-24T14:35:41.116Z,2.93
2022-09-24T14:40:55.902Z,3.23
2022-09-24T14:46:24.366Z,3.50
2022-09-24T14:51:34.196Z,7.83
2022-09-24T14:56:41.201Z,4.00
2022-09-24T15:01:49.410Z,5.33
2022-09-24T15:06:56.264Z,4.87
2022-09-24T15:12:15.621Z,3.23
2022-09-24T15:17:27.104Z,4.80
2022-09-24T15:22:34.309Z,3.73
2022-09-24T15:27:44.234Z,3.67
2022-09-24T15:32:52.651Z,4.63
2022-09-24T15:38:01.065Z,2.60
2022-09-24T15:43:13.789Z,2.90
2022-09-24T15:48:21.617Z,1.90
2022-09-24T15:53:31.714Z,1.53
2022-09-24T15:58:39.243Z,2.03
2022-09-24T16:03:46.170Z,2.77
2022-09-24T16:08:52.971Z,3.43
2022-09-24T16:14:00.034Z,1.73
2022-09-24T16:19:08.639Z,1.53
2022-09-24T16:24:15.371Z,1.70
2022-09-24T16:29:23.557Z,2.90
2022-09-24T16:34:31.291Z,1999.90
2022-09-24T16:39:38.026Z,53.77
2022-09-24T16:44:46.994Z,711.97
2022-09-24T16:49:53.830Z,1999.90
2022-09-24T16:55:01.518Z,1999.90
2022-09-24T17:00:13.726Z,1999.90
2022-09-24T17:05:20.442Z,3.03
2022-09-24T17:10:27.834Z,4.43
2022-09-24T17:15:36.058Z,4.87
2022-09-24T17:20:42.774Z,3.93
2022-09-24T17:25:49.380Z,3.17
2022-09-24T17:30:57.691Z,2.67
2022-09-24T17:36:09.749Z,5.00
2022-09-24T17:41:17.399Z,2.80
2022-09-24T17:46:24.819Z,3.53
2022-09-24T17:51:40.212Z,4.97
2022-09-24T17:56:47.110Z,4.87
2022-09-24T18:01:53.815Z,6.23
2022-09-24T18:07:01.586Z,6.13
2022-09-24T18:12:11.268Z,4.90
2022-09-24T18:17:17.352Z,4.77
2022-09-24T18:22:24.039Z,7.20
2022-09-24T18:27:32.224Z,4.43
2022-09-24T18:32:40.584Z,3.70
2022-09-24T18:37:48.623Z,6.27
2022-09-24T18:42:55.469Z,4.07
2022-09-24T18:48:04.812Z,5.13
2022-09-24T18:53:15.654Z,8.10
2022-09-24T18:58:27.041Z,5.77
2022-09-24T19:03:34.826Z,7.40
2022-09-24T19:08:45.265Z,4.47
2022-09-24T19:13:56.685Z,5.40
2022-09-24T19:19:05.705Z,6.03
2022-09-24T19:24:16.042Z,3.10
2022-09-24T19:29:26.730Z,8.17
2022-09-24T19:34:36.843Z,5.20
2022-09-24T19:39:46.834Z,4.10
2022-09-24T19:44:54.969Z,4.70
2022-09-24T19:50:04.261Z,5.10
2022-09-24T19:55:12.255Z,5.33
2022-09-24T20:00:23.654Z,5.13
2022-09-24T20:05:40.117Z,5.50
2022-09-24T20:10:50.129Z,6.53
2022-09-24T20:16:03.877Z,6.40
2022-09-24T20:21:14.534Z,4.57
2022-09-24T20:26:41.387Z,5.33
2022-09-24T20:31:52.533Z,5.17
2022-09-24T20:37:03.452Z,5.57
2022-09-24T20:42:10.673Z,5.70
2022-09-24T20:47:19.677Z,5.10
2022-09-24T20:52:27.868Z,6.37
2022-09-24T20:57:37.652Z,6.33
2022-09-24T21:02:45.520Z,5.57
2022-09-24T21:07:57.558Z,7.50
2022-09-24T21:13:04.962Z,4.53
2022-09-24T21:18:23.538Z,4.87
2022-09-24T21:23:26.904Z,5.25
2022-09-24T21:28:34.787Z,4.70
2022-09-24T21:33:44.420Z,6.13
2022-09-24T21:38:58.867Z,4.80
2022-09-24T21:44:12.297Z,4.60
2022-09-24T21:49:20.054Z,4.03
2022-09-24T21:54:27.914Z,4.87
2022-09-24T21:59:57.126Z,4.13
2022-09-24T22:05:05.330Z,3.83
2022-09-24T22:10:13.505Z,5.07
2022-09-24T22:15:22.015Z,4.33
2022-09-24T22:20:30.862Z,4.57
2022-09-24T22:25:40.276Z,4.80
2022-09-24T22:30:53.548Z,4.70
2022-09-24T22:36:04.534Z,5.03
2022-09-24T22:41:13.046Z,5.10
2022-09-24T22:46:21.244Z,4.57
2022-09-24T22:51:31.255Z,4.20
2022-09-24T22:56:41.573Z,3.97
2022-09-24T23:01:51.351Z,5.40
2022-09-24T23:07:02.794Z,3.77
2022-09-24T23:17:44.053Z,4.87
2022-09-24T23:22:52.778Z,3.57
2022-09-24T23:28:01.614Z,5.27
2022-09-24T23:33:08.463Z,5.27
2022-09-24T23:38:16.058Z,3.90
2022-09-24T23:43:27.661Z,4.10
2022-09-24T23:48:37.453Z,3.83
2022-09-24T23:53:44.382Z,5.07
2022-09-24T23:58:52.887Z,4.17
